sensor_id;sensor_type;location;lat;lon;timestamp;pressure;altitude;pressure_sealevel;temperature;humidity
64354;BME280;50681;53.334;-6.536;2023-02-04T00:01:16;102770.03;;;8.14;100.00
64354;BME280;50681;53.334;-6.536;2023-02-04T00:03:41;102793.13;;;8.28;100.00
64354;BME280;50681;53.334;-6.536;2023-02-04T00:06:07;102777.69;;;8.17;100.00
64354;BME280;50681;53.334;-6.536;2023-02-04T00:08:32;102794.38;;;8.26;100.00
64354;BME280;50681;53.334;-6.536;2023-02-04T00:10:58;102804.06;;;8.33;100.00
64354;BME280;50681;53.334;-6.536;2023-02-04T00:13:23;102793.31;;;8.33;100.00
64354;BME280;50681;53.334;-6.536;2023-02-04T00:15:48;102786.31;;;8.26;100.00
64354;BME280;50681;53.334;-6.536;2023-02-04T00:18:14;102769.59;;;8.17;100.00
64354;BME280;50681;53.334;-6.536;2023-02-04T00:20:39;102769.38;;;8.18;100.00
64354;BME280;50681;53.334;-6.536;2023-02-04T00:23:05;102776.53;;;8.31;100.00
64354;BME280;50681;53.334;-6.536;2023-02-04T00:25:30;102757.97;;;8.23;100.00
64354;BME280;50681;53.334;-6.536;2023-02-04T00:27:56;102765.97;;;8.30;100.00
64354;BME280;50681;53.334;-6.536;2023-02-04T00:30:21;102762.69;;;8.28;100.00
64354;BME280;50681;53.334;-6.536;2023-02-04T00:32:47;102765.16;;;8.29;100.00
64354;BME280;50681;53.334;-6.536;2023-02-04T00:35:12;102782.53;;;8.33;100.00
64354;BME280;50681;53.334;-6.536;2023-02-04T00:37:38;102766.03;;;8.23;100.00
64354;BME280;50681;53.334;-6.536;2023-02-04T00:40:03;102789.13;;;8.37;100.00
64354;BME280;50681;53.334;-6.536;2023-02-04T00:42:29;102785.22;;;8.33;100.00
64354;BME280;50681;53.334;-6.536;2023-02-04T00:44:54;102793.25;;;8.40;100.00
64354;BME280;50681;53.334;-6.536;2023-02-04T00:47:21;102767.47;;;8.26;100.00
64354;BME280;50681;53.334;-6.536;2023-02-04T00:49:47;102781.50;;;8.34;100.00
64354;BME280;50681;53.334;-6.536;2023-02-04T00:52:12;102773.06;;;8.24;100.00
64354;BME280;50681;53.334;-6.536;2023-02-04T00:54:37;102789.50;;;8.41;100.00
64354;BME280;50681;53.334;-6.536;2023-02-04T00:57:03;102787.06;;;8.33;100.00
64354;BME280;50681;53.334;-6.536;2023-02-04T00:59:28;102780.75;;;8.20;100.00
64354;BME280;50681;53.334;-6.536;2023-02-04T01:01:54;102795.56;;;8.36;100.00
64354;BME280;50681;53.334;-6.536;2023-02-04T01:04:19;102790.38;;;8.35;100.00
64354;BME280;50681;53.334;-6.536;2023-02-04T01:06:45;102801.38;;;8.33;100.00
64354;BME280;50681;53.334;-6.536;2023-02-04T01:09:11;102778.63;;;8.29;100.00
64354;BME280;50681;53.334;-6.536;2023-02-04T01:11:36;102766.47;;;8.20;100.00
64354;BME280;50681;53.334;-6.536;2023-02-04T01:14:02;102796.00;;;8.33;100.00
64354;BME280;50681;53.334;-6.536;2023-02-04T01:16:27;102777.84;;;8.22;100.00
64354;BME280;50681;53.334;-6.536;2023-02-04T01:18:53;102792.91;;;8.30;100.00
64354;BME280;50681;53.334;-6.536;2023-02-04T01:21:21;102787.16;;;8.26;100.00
64354;BME280;50681;53.334;-6.536;2023-02-04T01:23:47;102784.72;;;8.18;100.00
64354;BME280;50681;53.334;-6.536;2023-02-04T01:26:14;102802.63;;;8.31;100.00
64354;BME280;50681;53.334;-6.536;2023-02-04T01:28:40;102802.41;;;8.32;100.00
64354;BME280;50681;53.334;-6.536;2023-02-04T01:31:05;102785.50;;;8.25;100.00
64354;BME280;50681;53.334;-6.536;2023-02-04T01:33:30;102772.47;;;8.22;100.00
64354;BME280;50681;53.334;-6.536;2023-02-04T01:35:56;102798.25;;;8.36;100.00
64354;BME280;50681;53.334;-6.536;2023-02-04T01:38:22;102801.97;;;8.35;100.00
64354;BME280;50681;53.334;-6.536;2023-02-04T01:40:47;102780.53;;;8.22;100.00
64354;BME280;50681;53.334;-6.536;2023-02-04T01:43:13;102773.94;;;8.18;100.00
64354;BME280;50681;53.334;-6.536;2023-02-04T01:45:39;102796.19;;;8.32;100.00
64354;BME280;50681;53.334;-6.536;2023-02-04T01:48:05;102808.41;;;8.34;100.00
64354;BME280;50681;53.334;-6.536;2023-02-04T01:50:31;102784.81;;;8.30;100.00
64354;BME280;50681;53.334;-6.536;2023-02-04T01:52:58;102777.63;;;8.23;100.00
64354;BME280;50681;53.334;-6.536;2023-02-04T01:55:27;102773.50;;;8.21;100.00
64354;BME280;50681;53.334;-6.536;2023-02-04T01:57:53;102772.47;;;8.22;100.00
64354;BME280;50681;53.334;-6.536;2023-02-04T02:00:38;102774.94;;;8.23;100.00
64354;BME280;50681;53.334;-6.536;2023-02-04T02:03:05;102789.78;;;8.33;100.00
64354;BME280;50681;53.334;-6.536;2023-02-04T02:05:45;102782.72;;;8.32;100.00
64354;BME280;50681;53.334;-6.536;2023-02-04T02:08:14;102776.13;;;8.28;100.00
64354;BME280;50681;53.334;-6.536;2023-02-04T02:10:43;102779.25;;;8.31;100.00
64354;BME280;50681;53.334;-6.536;2023-02-04T02:13:12;102786.88;;;8.34;100.00
64354;BME280;50681;53.334;-6.536;2023-02-04T02:15:38;102767.09;;;8.22;100.00
64354;BME280;50681;53.334;-6.536;2023-02-04T02:18:04;102767.53;;;8.19;100.00
64354;BME280;50681;53.334;-6.536;2023-02-04T02:20:30;102755.75;;;8.13;100.00
64354;BME280;50681;53.334;-6.536;2023-02-04T02:23:09;102777.25;;;8.20;100.00
64354;BME280;50681;53.334;-6.536;2023-02-04T02:25:37;102797.06;;;8.26;100.00
64354;BME280;50681;53.334;-6.536;2023-02-04T02:28:16;102800.38;;;8.28;100.00
64354;BME280;50681;53.334;-6.536;2023-02-04T02:30:42;102788.00;;;8.20;100.00
64354;BME280;50681;53.334;-6.536;2023-02-04T02:33:12;102809.88;;;8.30;100.00
64354;BME280;50681;53.334;-6.536;2023-02-04T02:35:39;102804.53;;;8.23;100.00
64354;BME280;50681;53.334;-6.536;2023-02-04T02:38:10;102806.84;;;8.20;100.00
64354;BME280;50681;53.334;-6.536;2023-02-04T02:40:36;102799.22;;;8.17;100.00
64354;BME280;50681;53.334;-6.536;2023-02-04T02:43:02;102813.00;;;8.27;100.00
64354;BME280;50681;53.334;-6.536;2023-02-04T02:45:30;102788.81;;;8.20;100.00
64354;BME280;50681;53.334;-6.536;2023-02-04T02:47:59;102804.50;;;8.30;100.00
64354;BME280;50681;53.334;-6.536;2023-02-04T02:50:28;102813.81;;;8.28;100.00
64354;BME280;50681;53.334;-6.536;2023-02-04T02:52:55;102808.69;;;8.19;100.00
64354;BME280;50681;53.334;-6.536;2023-02-04T02:55:23;102814.66;;;8.28;100.00
64354;BME280;50681;53.334;-6.536;2023-02-04T02:57:50;102814.44;;;8.30;100.00
64354;BME280;50681;53.334;-6.536;2023-02-04T03:02:52;102809.72;;;8.25;100.00
64354;BME280;50681;53.334;-6.536;2023-02-04T03:05:19;102798.78;;;8.20;100.00
64354;BME280;50681;53.334;-6.536;2023-02-04T03:07:44;102805.81;;;8.21;100.00
64354;BME280;50681;53.334;-6.536;2023-02-04T03:10:12;102780.03;;;8.06;100.00
64354;BME280;50681;53.334;-6.536;2023-02-04T03:12:37;102781.84;;;8.13;100.00
64354;BME280;50681;53.334;-6.536;2023-02-04T03:15:04;102800.00;;;8.24;100.00
64354;BME280;50681;53.334;-6.536;2023-02-04T03:17:32;102792.56;;;8.19;100.00
64354;BME280;50681;53.334;-6.536;2023-02-04T03:19:58;102796.53;;;8.17;100.00
64354;BME280;50681;53.334;-6.536;2023-02-04T03:22:25;102790.31;;;8.16;100.00
64354;BME280;50681;53.334;-6.536;2023-02-04T03:24:50;102776.03;;;8.16;100.00
64354;BME280;50681;53.334;-6.536;2023-02-04T03:27:16;102762.84;;;8.07;100.00
64354;BME280;50681;53.334;-6.536;2023-02-04T03:29:43;102766.13;;;8.09;100.00
64354;BME280;50681;53.334;-6.536;2023-02-04T03:32:08;102772.94;;;8.12;100.00
64354;BME280;50681;53.334;-6.536;2023-02-04T03:34:34;102774.22;;;8.09;100.00
64354;BME280;50681;53.334;-6.536;2023-02-04T03:36:59;102765.09;;;8.11;100.00
64354;BME280;50681;53.334;-6.536;2023-02-04T03:39:25;102771.59;;;7.96;100.00
64354;BME280;50681;53.334;-6.536;2023-02-04T03:41:50;102780.19;;;8.12;100.00
64354;BME280;50681;53.334;-6.536;2023-02-04T03:44:15;102756.28;;;7.97;100.00
64354;BME280;50681;53.334;-6.536;2023-02-04T03:46:41;102762.56;;;7.90;100.00
64354;BME280;50681;53.334;-6.536;2023-02-04T03:49:06;102781.31;;;7.97;100.00
64354;BME280;50681;53.334;-6.536;2023-02-04T03:51:32;102791.41;;;8.08;100.00
64354;BME280;50681;53.334;-6.536;2023-02-04T03:53:57;102795.91;;;8.15;100.00
64354;BME280;50681;53.334;-6.536;2023-02-04T03:56:23;102799.47;;;8.08;100.00
64354;BME280;50681;53.334;-6.536;2023-02-04T03:58:48;102779.84;;;8.01;100.00
64354;BME280;50681;53.334;-6.536;2023-02-04T04:01:14;102780.47;;;8.03;100.00
64354;BME280;50681;53.334;-6.536;2023-02-04T04:03:39;102785.84;;;8.03;100.00
64354;BME280;50681;53.334;-6.536;2023-02-04T04:06:04;102786.44;;;8.05;100.00
64354;BME280;50681;53.334;-6.536;2023-02-04T04:08:32;102764.94;;;7.99;100.00
64354;BME280;50681;53.334;-6.536;2023-02-04T04:10:58;102763.53;;;7.96;100.00
64354;BME280;50681;53.334;-6.536;2023-02-04T04:13:27;102778.56;;;8.11;100.00
64354;BME280;50681;53.334;-6.536;2023-02-04T04:15:52;102776.06;;;8.09;100.00
64354;BME280;50681;53.334;-6.536;2023-02-04T04:18:18;102771.97;;;8.06;100.00
64354;BME280;50681;53.334;-6.536;2023-02-04T04:20:43;102738.09;;;7.92;100.00
64354;BME280;50681;53.334;-6.536;2023-02-04T04:23:09;102771.72;;;8.08;100.00
64354;BME280;50681;53.334;-6.536;2023-02-04T04:25:34;102765.53;;;8.07;100.00
64354;BME280;50681;53.334;-6.536;2023-02-04T04:28:00;102763.66;;;8.08;100.00
64354;BME280;50681;53.334;-6.536;2023-02-04T04:30:33;102746.78;;;7.94;100.00
64354;BME280;50681;53.334;-6.536;2023-02-04T04:32:59;102755.47;;;7.96;100.00
64354;BME280;50681;53.334;-6.536;2023-02-04T04:35:24;102769.47;;;8.05;100.00
64354;BME280;50681;53.334;-6.536;2023-02-04T04:37:50;102769.69;;;8.03;100.00
64354;BME280;50681;53.334;-6.536;2023-02-04T04:40:16;102766.59;;;8.00;100.00
64354;BME280;50681;53.334;-6.536;2023-02-04T04:42:45;102750.34;;;7.88;100.00
64354;BME280;50681;53.334;-6.536;2023-02-04T04:45:11;102734.22;;;7.88;100.00
64354;BME280;50681;53.334;-6.536;2023-02-04T04:47:36;102748.50;;;7.88;100.00
64354;BME280;50681;53.334;-6.536;2023-02-04T04:50:02;102743.91;;;7.89;100.00
64354;BME280;50681;53.334;-6.536;2023-02-04T04:52:28;102750.94;;;7.90;100.00
64354;BME280;50681;53.334;-6.536;2023-02-04T04:54:53;102770.56;;;7.97;100.00
64354;BME280;50681;53.334;-6.536;2023-02-04T04:57:19;102767.69;;;7.92;100.00
64354;BME280;50681;53.334;-6.536;2023-02-04T04:59:44;102741.91;;;7.84;100.00
64354;BME280;50681;53.334;-6.536;2023-02-04T05:02:10;102761.88;;;7.95;100.00
64354;BME280;50681;53.334;-6.536;2023-02-04T05:04:35;102777.78;;;7.97;100.00
64354;BME280;50681;53.334;-6.536;2023-02-04T05:07:00;102766.47;;;7.88;100.00
64354;BME280;50681;53.334;-6.536;2023-02-04T05:09:26;102773.25;;;7.97;100.00
64354;BME280;50681;53.334;-6.536;2023-02-04T05:11:51;102784.19;;;8.02;100.00
64354;BME280;50681;53.334;-6.536;2023-02-04T05:14:17;102769.97;;;7.95;100.00
64354;BME280;50681;53.334;-6.536;2023-02-04T05:16:42;102764.19;;;7.91;100.00
64354;BME280;50681;53.334;-6.536;2023-02-04T05:19:08;102759.69;;;7.85;100.00
64354;BME280;50681;53.334;-6.536;2023-02-04T05:21:33;102765.88;;;7.86;100.00
64354;BME280;50681;53.334;-6.536;2023-02-04T05:23:59;102761.75;;;7.83;100.00
64354;BME280;50681;53.334;-6.536;2023-02-04T05:26:24;102763.19;;;7.86;100.00
64354;BME280;50681;53.334;-6.536;2023-02-04T05:28:51;102775.59;;;7.87;100.00
64354;BME280;50681;53.334;-6.536;2023-02-04T05:31:16;102786.72;;;7.97;100.00
64354;BME280;50681;53.334;-6.536;2023-02-04T05:33:42;102782.81;;;7.93;100.00
64354;BME280;50681;53.334;-6.536;2023-02-04T05:36:07;102783.41;;;7.95;100.00
64354;BME280;50681;53.334;-6.536;2023-02-04T05:38:33;102787.94;;;8.01;100.00
64354;BME280;50681;53.334;-6.536;2023-02-04T05:40:58;102771.44;;;7.91;100.00
64354;BME280;50681;53.334;-6.536;2023-02-04T05:43:23;102758.41;;;7.88;100.00
64354;BME280;50681;53.334;-6.536;2023-02-04T05:45:49;102764.03;;;7.86;100.00
64354;BME280;50681;53.334;-6.536;2023-02-04T05:48:14;102762.97;;;7.87;100.00
64354;BME280;50681;53.334;-6.536;2023-02-04T05:50:40;102755.34;;;7.84;100.00
64354;BME280;50681;53.334;-6.536;2023-02-04T05:53:05;102753.91;;;7.82;100.00
64354;BME280;50681;53.334;-6.536;2023-02-04T05:55:31;102766.06;;;7.91;100.00
64354;BME280;50681;53.334;-6.536;2023-02-04T05:57:56;102773.25;;;7.97;100.00
64354;BME280;50681;53.334;-6.536;2023-02-04T06:00:22;102760.50;;;7.86;100.00
64354;BME280;50681;53.334;-6.536;2023-02-04T06:02:47;102749.72;;;7.86;100.00
64354;BME280;50681;53.334;-6.536;2023-02-04T06:05:13;102744.41;;;7.79;100.00
64354;BME280;50681;53.334;-6.536;2023-02-04T06:07:38;102768.69;;;7.98;100.00
64354;BME280;50681;53.334;-6.536;2023-02-04T06:10:04;102758.66;;;7.86;100.00
64354;BME280;50681;53.334;-6.536;2023-02-04T06:12:29;102753.03;;;7.88;100.00
64354;BME280;50681;53.334;-6.536;2023-02-04T06:14:55;102751.44;;;7.80;100.00
64354;BME280;50681;53.334;-6.536;2023-02-04T06:17:20;102755.97;;;7.79;100.00
64354;BME280;50681;53.334;-6.536;2023-02-04T06:19:46;102780.72;;;7.95;100.00
64354;BME280;50681;53.334;-6.536;2023-02-04T06:22:11;102787.13;;;7.94;100.00
64354;BME280;50681;53.334;-6.536;2023-02-04T06:24:37;102776.38;;;7.94;100.00
64354;BME280;50681;53.334;-6.536;2023-02-04T06:27:02;102755.97;;;7.79;100.00
64354;BME280;50681;53.334;-6.536;2023-02-04T06:29:28;102750.41;;;7.74;100.00
64354;BME280;50681;53.334;-6.536;2023-02-04T06:31:53;102735.31;;;7.73;100.00
64354;BME280;50681;53.334;-6.536;2023-02-04T06:34:19;102770.75;;;7.95;100.00
64354;BME280;50681;53.334;-6.536;2023-02-04T06:36:44;102733.28;;;7.69;100.00
64354;BME280;50681;53.334;-6.536;2023-02-04T06:39:09;102752.25;;;7.80;100.00
64354;BME280;50681;53.334;-6.536;2023-02-04T06:41:36;102769.41;;;7.86;100.00
64354;BME280;50681;53.334;-6.536;2023-02-04T06:44:02;102758.84;;;7.85;100.00
64354;BME280;50681;53.334;-6.536;2023-02-04T06:46:27;102734.50;;;7.73;100.00
64354;BME280;50681;53.334;-6.536;2023-02-04T06:48:53;102756.75;;;7.87;100.00
64354;BME280;50681;53.334;-6.536;2023-02-04T06:51:18;102747.09;;;7.79;100.00
64354;BME280;50681;53.334;-6.536;2023-02-04T06:53:43;102765.66;;;7.87;100.00
64354;BME280;50681;53.334;-6.536;2023-02-04T06:56:10;102741.13;;;7.77;100.00
64354;BME280;50681;53.334;-6.536;2023-02-04T06:58:36;102753.28;;;7.79;100.00
64354;BME280;50681;53.334;-6.536;2023-02-04T07:01:02;102756.34;;;7.90;100.00
64354;BME280;50681;53.334;-6.536;2023-02-04T07:03:27;102777.03;;;7.89;100.00
64354;BME280;50681;53.334;-6.536;2023-02-04T07:05:53;102752.69;;;7.77;100.00
64354;BME280;50681;53.334;-6.536;2023-02-04T07:08:18;102774.72;;;7.93;100.00
64354;BME280;50681;53.334;-6.536;2023-02-04T07:10:46;102757.00;;;7.85;100.00
64354;BME280;50681;53.334;-6.536;2023-02-04T07:13:11;102765.06;;;7.85;100.00
64354;BME280;50681;53.334;-6.536;2023-02-04T07:15:37;102775.78;;;7.92;100.00
64354;BME280;50681;53.334;-6.536;2023-02-04T07:18:02;102764.63;;;7.88;100.00
64354;BME280;50681;53.334;-6.536;2023-02-04T07:20:28;102769.59;;;7.91;100.00
64354;BME280;50681;53.334;-6.536;2023-02-04T07:22:53;102759.44;;;7.87;100.00
64354;BME280;50681;53.334;-6.536;2023-02-04T07:25:19;102757.19;;;7.84;100.00
64354;BME280;50681;53.334;-6.536;2023-02-04T07:27:44;102737.41;;;7.71;100.00
64354;BME280;50681;53.334;-6.536;2023-02-04T07:30:10;102760.28;;;7.87;100.00
64354;BME280;50681;53.334;-6.536;2023-02-04T07:32:36;102727.50;;;7.72;100.00
64354;BME280;50681;53.334;-6.536;2023-02-04T07:35:01;102742.31;;;7.81;100.00
64354;BME280;50681;53.334;-6.536;2023-02-04T07:37:27;102749.78;;;7.79;100.00
64354;BME280;50681;53.334;-6.536;2023-02-04T07:39:52;102740.44;;;7.82;100.00
64354;BME280;50681;53.334;-6.536;2023-02-04T07:42:17;102747.03;;;7.86;100.00
64354;BME280;50681;53.334;-6.536;2023-02-04T07:44:43;102738.00;;;7.80;100.00
64354;BME280;50681;53.334;-6.536;2023-02-04T07:47:08;102750.94;;;7.90;100.00
64354;BME280;50681;53.334;-6.536;2023-02-04T07:49:34;102740.06;;;7.78;100.00
64354;BME280;50681;53.334;-6.536;2023-02-04T07:51:59;102763.34;;;7.91;100.00
64354;BME280;50681;53.334;-6.536;2023-02-04T07:54:25;102754.94;;;7.80;100.00
64354;BME280;50681;53.334;-6.536;2023-02-04T07:56:50;102772.47;;;7.90;100.00
64354;BME280;50681;53.334;-6.536;2023-02-04T07:59:15;102777.25;;;7.88;100.00
64354;BME280;50681;53.334;-6.536;2023-02-04T08:01:41;102761.97;;;7.82;100.00
64354;BME280;50681;53.334;-6.536;2023-02-04T08:04:06;102764.22;;;7.85;100.00
64354;BME280;50681;53.334;-6.536;2023-02-04T08:06:32;102761.59;;;7.78;100.00
64354;BME280;50681;53.334;-6.536;2023-02-04T08:08:57;102784.44;;;7.94;100.00
64354;BME280;50681;53.334;-6.536;2023-02-04T08:11:23;102774.13;;;7.91;100.00
64354;BME280;50681;53.334;-6.536;2023-02-04T08:13:48;102755.78;;;7.81;100.00
64354;BME280;50681;53.334;-6.536;2023-02-04T08:16:14;102765.88;;;7.86;100.00
64354;BME280;50681;53.334;-6.536;2023-02-04T08:18:39;102781.16;;;7.92;100.00
64354;BME280;50681;53.334;-6.536;2023-02-04T08:21:05;102768.19;;;7.82;100.00
64354;BME280;50681;53.334;-6.536;2023-02-04T08:23:31;102786.72;;;7.97;100.00
64354;BME280;50681;53.334;-6.536;2023-02-04T08:25:57;102792.94;;;7.91;100.00
64354;BME280;50681;53.334;-6.536;2023-02-04T08:28:22;102791.31;;;7.90;100.00
64354;BME280;50681;53.334;-6.536;2023-02-04T08:30:49;102790.06;;;7.92;100.00
64354;BME280;50681;53.334;-6.536;2023-02-04T08:33:14;102796.44;;;7.98;100.00
64354;BME280;50681;53.334;-6.536;2023-02-04T08:35:39;102803.66;;;7.98;100.00
64354;BME280;50681;53.334;-6.536;2023-02-04T08:38:05;102813.78;;;8.02;100.00
64354;BME280;50681;53.334;-6.536;2023-02-04T08:40:36;102808.22;;;7.97;100.00
64354;BME280;50681;53.334;-6.536;2023-02-04T08:43:02;102793.81;;;7.85;100.00
64354;BME280;50681;53.334;-6.536;2023-02-04T08:45:27;102800.22;;;7.90;100.00
64354;BME280;50681;53.334;-6.536;2023-02-04T08:47:52;102815.75;;;7.88;100.00
64354;BME280;50681;53.334;-6.536;2023-02-04T08:50:18;102814.28;;;7.86;100.00
64354;BME280;50681;53.334;-6.536;2023-02-04T08:52:43;102823.75;;;7.95;100.00
64354;BME280;50681;53.334;-6.536;2023-02-04T08:55:09;102834.03;;;8.05;100.00
64354;BME280;50681;53.334;-6.536;2023-02-04T08:57:34;102827.25;;;7.95;100.00
64354;BME280;50681;53.334;-6.536;2023-02-04T09:00:00;102833.66;;;8.01;100.00
64354;BME280;50681;53.334;-6.536;2023-02-04T09:02:25;102846.63;;;8.11;100.00
64354;BME280;50681;53.334;-6.536;2023-02-04T09:04:51;102851.81;;;8.13;100.00
64354;BME280;50681;53.334;-6.536;2023-02-04T09:07:16;102853.91;;;8.11;100.00
64354;BME280;50681;53.334;-6.536;2023-02-04T09:09:42;102838.78;;;8.09;100.00
64354;BME280;50681;53.334;-6.536;2023-02-04T09:12:07;102817.38;;;7.89;100.00
64354;BME280;50681;53.334;-6.536;2023-02-04T09:14:33;102836.97;;;8.03;100.00
64354;BME280;50681;53.334;-6.536;2023-02-04T09:16:58;102844.81;;;8.05;100.00
64354;BME280;50681;53.334;-6.536;2023-02-04T09:19:23;102848.94;;;8.07;100.00
64354;BME280;50681;53.334;-6.536;2023-02-04T09:21:51;102836.16;;;7.96;100.00
64354;BME280;50681;53.334;-6.536;2023-02-04T09:24:17;102833.25;;;7.98;100.00
64354;BME280;50681;53.334;-6.536;2023-02-04T09:26:43;102854.50;;;8.13;100.00
64354;BME280;50681;53.334;-6.536;2023-02-04T09:29:08;102824.38;;;7.97;100.00
64354;BME280;50681;53.334;-6.536;2023-02-04T09:31:34;102827.44;;;8.01;100.00
64354;BME280;50681;53.334;-6.536;2023-02-04T09:33:59;102838.34;;;8.13;100.00
64354;BME280;50681;53.334;-6.536;2023-02-04T09:36:24;102843.88;;;8.24;100.00
64354;BME280;50681;53.334;-6.536;2023-02-04T09:38:53;102823.63;;;8.15;100.00
64354;BME280;50681;53.334;-6.536;2023-02-04T09:41:19;102840.31;;;8.31;100.00
64354;BME280;50681;53.334;-6.536;2023-02-04T09:43:45;102852.25;;;8.42;100.00
64354;BME280;50681;53.334;-6.536;2023-02-04T09:46:23;102816.94;;;8.24;100.00
64354;BME280;50681;53.334;-6.536;2023-02-04T09:48:53;102854.09;;;8.48;100.00
64354;BME280;50681;53.334;-6.536;2023-02-04T09:51:21;102816.91;;;8.31;100.00
64354;BME280;50681;53.334;-6.536;2023-02-04T09:53:48;102846.28;;;8.39;100.00
64354;BME280;50681;53.334;-6.536;2023-02-04T09:56:14;102867.13;;;8.51;100.00
64354;BME280;50681;53.334;-6.536;2023-02-04T09:58:41;102868.53;;;8.60;100.00
64354;BME280;50681;53.334;-6.536;2023-02-04T10:01:14;102865.59;;;8.62;100.00
64354;BME280;50681;53.334;-6.536;2023-02-04T10:03:41;102853.69;;;8.51;100.00
64354;BME280;50681;53.334;-6.536;2023-02-04T10:06:12;102858.78;;;8.59;100.00
64354;BME280;50681;53.334;-6.536;2023-02-04T10:08:39;102871.59;;;8.64;100.00
64354;BME280;50681;53.334;-6.536;2023-02-04T10:11:04;102863.59;;;8.50;100.00
64354;BME280;50681;53.334;-6.536;2023-02-04T10:13:36;102857.34;;;8.57;100.00
64354;BME280;50681;53.334;-6.536;2023-02-04T10:16:12;102871.59;;;8.64;100.00
64354;BME280;50681;53.334;-6.536;2023-02-04T10:18:38;102874.25;;;8.71;100.00
64354;BME280;50681;53.334;-6.536;2023-02-04T10:23:36;102865.94;;;8.72;100.00
64354;BME280;50681;53.334;-6.536;2023-02-04T10:26:03;102863.41;;;8.77;100.00
64354;BME280;50681;53.334;-6.536;2023-02-04T10:28:35;102872.09;;;8.79;100.00
64354;BME280;50681;53.334;-6.536;2023-02-04T10:31:00;102853.47;;;8.78;100.00
64354;BME280;50681;53.334;-6.536;2023-02-04T10:33:26;102843.47;;;8.85;100.00
64354;BME280;50681;53.334;-6.536;2023-02-04T10:35:54;102848.41;;;8.88;100.00
64354;BME280;50681;53.334;-6.536;2023-02-04T10:38:20;102854.28;;;9.04;100.00
64354;BME280;50681;53.334;-6.536;2023-02-04T10:41:11;102834.22;;;9.00;100.00
64354;BME280;50681;53.334;-6.536;2023-02-04T10:43:39;102865.91;;;9.23;100.00
64354;BME280;50681;53.334;-6.536;2023-02-04T10:46:04;102848.78;;;9.17;100.00
64354;BME280;50681;53.334;-6.536;2023-02-04T10:48:40;102846.38;;;9.27;100.00
64354;BME280;50681;53.334;-6.536;2023-02-04T10:51:09;102821.41;;;9.14;100.00
64354;BME280;50681;53.334;-6.536;2023-02-04T10:53:37;102838.06;;;9.29;100.00
64354;BME280;50681;53.334;-6.536;2023-02-04T10:56:21;102840.25;;;9.39;100.00
64354;BME280;50681;53.334;-6.536;2023-02-04T10:58:47;102864.06;;;9.61;100.00
64354;BME280;50681;53.334;-6.536;2023-02-04T11:01:14;102878.00;;;9.76;100.00
64354;BME280;50681;53.334;-6.536;2023-02-04T11:03:41;102847.28;;;9.40;100.00
64354;BME280;50681;53.334;-6.536;2023-02-04T11:06:11;102877.47;;;9.67;100.00
64354;BME280;50681;53.334;-6.536;2023-02-04T11:08:38;102875.00;;;9.66;100.00
64354;BME280;50681;53.334;-6.536;2023-02-04T11:11:08;102878.06;;;9.69;100.00
64354;BME280;50681;53.334;-6.536;2023-02-04T11:18:58;102889.53;;;9.65;100.00
64354;BME280;50681;53.334;-6.536;2023-02-04T11:21:28;102887.28;;;9.80;100.00
64354;BME280;50681;53.334;-6.536;2023-02-04T11:26:36;102893.88;;;9.84;100.00
64354;BME280;50681;53.334;-6.536;2023-02-04T11:31:42;102878.44;;;9.92;100.00
64354;BME280;50681;53.334;-6.536;2023-02-04T11:39:28;102883.56;;;10.12;100.00
64354;BME280;50681;53.334;-6.536;2023-02-04T11:41:58;102885.13;;;10.20;100.00
64354;BME280;50681;53.334;-6.536;2023-02-04T11:44:24;102851.41;;;10.10;100.00
64354;BME280;50681;53.334;-6.536;2023-02-04T11:46:54;102860.97;;;10.25;100.00
64354;BME280;50681;53.334;-6.536;2023-02-04T11:49:22;102879.59;;;10.45;100.00
64354;BME280;50681;53.334;-6.536;2023-02-04T11:51:49;102855.84;;;10.35;100.00
64354;BME280;50681;53.334;-6.536;2023-02-04T11:54:16;102878.91;;;10.50;100.00
64354;BME280;50681;53.334;-6.536;2023-02-04T11:56:44;102868.13;;;10.50;100.00
64354;BME280;50681;53.334;-6.536;2023-02-04T11:59:11;102872.78;;;10.42;100.00
64354;BME280;50681;53.334;-6.536;2023-02-04T12:01:38;102848.84;;;10.46;100.00
64354;BME280;50681;53.334;-6.536;2023-02-04T12:04:27;102824.19;;;10.54;100.00
64354;BME280;50681;53.334;-6.536;2023-02-04T12:07:27;102842.63;;;10.69;100.00
64354;BME280;50681;53.334;-6.536;2023-02-04T12:12:54;102821.81;;;10.46;100.00
64354;BME280;50681;53.334;-6.536;2023-02-04T12:18:40;102861.66;;;10.74;100.00
64354;BME280;50681;53.334;-6.536;2023-02-04T12:21:05;102841.69;;;10.76;100.00
64354;BME280;50681;53.334;-6.536;2023-02-04T12:23:31;102840.28;;;10.61;100.00
64354;BME280;50681;53.334;-6.536;2023-02-04T12:25:57;102833.59;;;10.76;100.00
64354;BME280;50681;53.334;-6.536;2023-02-04T12:28:22;102835.94;;;10.60;100.00
64354;BME280;50681;53.334;-6.536;2023-02-04T12:30:48;102829.97;;;10.58;100.00
64354;BME280;50681;53.334;-6.536;2023-02-04T12:33:14;102841.91;;;10.50;100.00
64354;BME280;50681;53.334;-6.536;2023-02-04T12:35:39;102859.91;;;10.68;100.00
64354;BME280;50681;53.334;-6.536;2023-02-04T12:38:05;102829.00;;;10.52;100.00
64354;BME280;50681;53.334;-6.536;2023-02-04T12:40:31;102855.41;;;10.62;100.00
64354;BME280;50681;53.334;-6.536;2023-02-04T12:42:57;102838.63;;;10.48;100.00
64354;BME280;50681;53.334;-6.536;2023-02-04T12:45:33;102849.22;;;10.62;100.00
64354;BME280;50681;53.334;-6.536;2023-02-04T12:47:59;102850.72;;;10.69;100.00
64354;BME280;50681;53.334;-6.536;2023-02-04T12:50:24;102875.78;;;10.88;100.00
64354;BME280;50681;53.334;-6.536;2023-02-04T12:52:56;102861.69;;;10.86;100.00
64354;BME280;50681;53.334;-6.536;2023-02-04T12:55:23;102872.28;;;11.00;100.00
64354;BME280;50681;53.334;-6.536;2023-02-04T12:57:50;102874.25;;;11.05;100.00
64354;BME280;50681;53.334;-6.536;2023-02-04T13:00:19;102884.03;;;11.06;100.00
64354;BME280;50681;53.334;-6.536;2023-02-04T13:02:45;102884.03;;;11.17;100.00